sensor_id;sensor_type;location;lat;lon;timestamp;temperature;humidity
7214;DHT22;3648;50.614;13.830;2023-07-28T00:00:58;17.00;99.90
7214;DHT22;3648;50.614;13.830;2023-07-28T00:03:26;16.90;99.90
7214;DHT22;3648;50.614;13.830;2023-07-28T00:05:53;17.00;99.90
7214;DHT22;3648;50.614;13.830;2023-07-28T00:08:20;17.00;99.90
7214;DHT22;3648;50.614;13.830;2023-07-28T00:10:47;17.00;99.90
7214;DHT22;3648;50.614;13.830;2023-07-28T00:13:14;16.90;99.90
7214;DHT22;3648;50.614;13.830;2023-07-28T00:15:41;17.00;99.90
7214;DHT22;3648;50.614;13.830;2023-07-28T00:18:08;17.00;99.90
7214;DHT22;3648;50.614;13.830;2023-07-28T00:20:36;17.00;99.90
7214;DHT22;3648;50.614;13.830;2023-07-28T00:23:03;17.00;99.90
7214;DHT22;3648;50.614;13.830;2023-07-28T00:25:30;17.00;99.90
7214;DHT22;3648;50.614;13.830;2023-07-28T00:27:57;17.00;99.90
7214;DHT22;3648;50.614;13.830;2023-07-28T00:30:24;17.00;99.90
7214;DHT22;3648;50.614;13.830;2023-07-28T00:32:52;17.00;99.90
7214;DHT22;3648;50.614;13.830;2023-07-28T00:35:19;17.00;99.90
7214;DHT22;3648;50.614;13.830;2023-07-28T00:37:47;17.00;99.90
7214;DHT22;3648;50.614;13.830;2023-07-28T00:40:14;17.00;99.90
7214;DHT22;3648;50.614;13.830;2023-07-28T00:42:41;17.00;99.90
7214;DHT22;3648;50.614;13.830;2023-07-28T00:45:08;17.00;99.90
7214;DHT22;3648;50.614;13.830;2023-07-28T00:47:36;17.00;99.90
7214;DHT22;3648;50.614;13.830;2023-07-28T00:50:03;17.00;99.90
7214;DHT22;3648;50.614;13.830;2023-07-28T00:52:32;17.00;99.90
7214;DHT22;3648;50.614;13.830;2023-07-28T00:55:00;17.00;99.90
7214;DHT22;3648;50.614;13.830;2023-07-28T00:57:28;17.10;99.90
7214;DHT22;3648;50.614;13.830;2023-07-28T00:59:55;17.00;99.90
7214;DHT22;3648;50.614;13.830;2023-07-28T01:02:22;17.10;99.90
7214;DHT22;3648;50.614;13.830;2023-07-28T01:04:49;17.00;99.90
7214;DHT22;3648;50.614;13.830;2023-07-28T01:07:21;17.00;99.90
7214;DHT22;3648;50.614;13.830;2023-07-28T01:09:58;17.00;99.90
7214;DHT22;3648;50.614;13.830;2023-07-28T01:12:29;17.10;99.90
7214;DHT22;3648;50.614;13.830;2023-07-28T01:14:55;17.00;99.90
7214;DHT22;3648;50.614;13.830;2023-07-28T01:17:22;17.10;99.90
7214;DHT22;3648;50.614;13.830;2023-07-28T01:19:50;17.10;99.90
7214;DHT22;3648;50.614;13.830;2023-07-28T01:22:30;17.10;99.90
7214;DHT22;3648;50.614;13.830;2023-07-28T01:25:14;17.10;99.90
7214;DHT22;3648;50.614;13.830;2023-07-28T01:27:44;17.10;99.90
7214;DHT22;3648;50.614;13.830;2023-07-28T01:30:11;17.10;99.90
7214;DHT22;3648;50.614;13.830;2023-07-28T01:32:38;17.10;99.90
7214;DHT22;3648;50.614;13.830;2023-07-28T01:35:06;17.10;99.90
7214;DHT22;3648;50.614;13.830;2023-07-28T01:37:33;17.10;99.90
7214;DHT22;3648;50.614;13.830;2023-07-28T01:40:00;17.10;99.90
7214;DHT22;3648;50.614;13.830;2023-07-28T01:42:27;17.10;99.90
7214;DHT22;3648;50.614;13.830;2023-07-28T01:44:55;17.10;99.90
7214;DHT22;3648;50.614;13.830;2023-07-28T01:47:22;17.10;99.90
7214;DHT22;3648;50.614;13.830;2023-07-28T01:49:50;17.10;99.90
7214;DHT22;3648;50.614;13.830;2023-07-28T01:52:17;17.10;99.90
7214;DHT22;3648;50.614;13.830;2023-07-28T01:54:45;17.10;99.90
7214;DHT22;3648;50.614;13.830;2023-07-28T01:57:11;17.10;99.90
7214;DHT22;3648;50.614;13.830;2023-07-28T01:59:38;17.10;99.90
7214;DHT22;3648;50.614;13.830;2023-07-28T02:02:07;17.00;99.90
7214;DHT22;3648;50.614;13.830;2023-07-28T02:04:34;17.00;99.90
7214;DHT22;3648;50.614;13.830;2023-07-28T02:07:01;17.00;99.90
7214;DHT22;3648;50.614;13.830;2023-07-28T02:09:28;17.00;99.90
7214;DHT22;3648;50.614;13.830;2023-07-28T02:11:55;17.00;99.90
7214;DHT22;3648;50.614;13.830;2023-07-28T02:14:22;17.00;99.90
7214;DHT22;3648;50.614;13.830;2023-07-28T02:16:49;17.00;99.90
7214;DHT22;3648;50.614;13.830;2023-07-28T02:19:17;17.00;99.90
7214;DHT22;3648;50.614;13.830;2023-07-28T02:21:44;17.00;99.90
7214;DHT22;3648;50.614;13.830;2023-07-28T02:24:11;17.00;99.90
7214;DHT22;3648;50.614;13.830;2023-07-28T02:26:38;17.00;99.90
7214;DHT22;3648;50.614;13.830;2023-07-28T02:29:05;17.00;99.90
7214;DHT22;3648;50.614;13.830;2023-07-28T02:31:32;17.00;99.90
7214;DHT22;3648;50.614;13.830;2023-07-28T02:33:59;17.00;99.90
7214;DHT22;3648;50.614;13.830;2023-07-28T02:36:27;17.00;99.90
7214;DHT22;3648;50.614;13.830;2023-07-28T02:38:54;17.00;99.90
7214;DHT22;3648;50.614;13.830;2023-07-28T02:41:21;17.00;99.90
7214;DHT22;3648;50.614;13.830;2023-07-28T02:43:47;16.90;99.90
7214;DHT22;3648;50.614;13.830;2023-07-28T02:46:14;16.90;99.90
7214;DHT22;3648;50.614;13.830;2023-07-28T02:48:41;16.90;99.90
7214;DHT22;3648;50.614;13.830;2023-07-28T02:51:08;16.90;99.90
7214;DHT22;3648;50.614;13.830;2023-07-28T02:53:36;16.90;99.90
7214;DHT22;3648;50.614;13.830;2023-07-28T02:56:03;16.90;99.90
7214;DHT22;3648;50.614;13.830;2023-07-28T02:58:30;16.90;99.90
7214;DHT22;3648;50.614;13.830;2023-07-28T03:00:57;16.90;99.90
7214;DHT22;3648;50.614;13.830;2023-07-28T03:03:24;16.90;1.00
7214;DHT22;3648;50.614;13.830;2023-07-28T03:05:52;17.00;1.00
7214;DHT22;3648;50.614;13.830;2023-07-28T03:08:19;17.00;1.00
7214;DHT22;3648;50.614;13.830;2023-07-28T03:10:47;17.00;1.00
7214;DHT22;3648;50.614;13.830;2023-07-28T03:13:14;17.00;1.00
7214;DHT22;3648;50.614;13.830;2023-07-28T03:15:41;17.00;1.00
7214;DHT22;3648;50.614;13.830;2023-07-28T03:18:08;17.00;1.00
7214;DHT22;3648;50.614;13.830;2023-07-28T03:20:35;17.00;1.00
7214;DHT22;3648;50.614;13.830;2023-07-28T03:23:02;17.00;1.00
7214;DHT22;3648;50.614;13.830;2023-07-28T03:25:29;17.00;1.00
7214;DHT22;3648;50.614;13.830;2023-07-28T03:27:57;17.10;1.00
7214;DHT22;3648;50.614;13.830;2023-07-28T03:30:24;17.00;1.00
7214;DHT22;3648;50.614;13.830;2023-07-28T03:32:51;17.10;1.00
7214;DHT22;3648;50.614;13.830;2023-07-28T03:35:18;17.10;1.00
7214;DHT22;3648;50.614;13.830;2023-07-28T03:37:45;17.10;1.00
7214;DHT22;3648;50.614;13.830;2023-07-28T03:40:12;17.10;1.00
7214;DHT22;3648;50.614;13.830;2023-07-28T03:42:39;17.10;1.00
7214;DHT22;3648;50.614;13.830;2023-07-28T03:45:08;17.10;1.00
7214;DHT22;3648;50.614;13.830;2023-07-28T03:47:36;17.10;1.00
7214;DHT22;3648;50.614;13.830;2023-07-28T03:50:05;17.10;1.00
7214;DHT22;3648;50.614;13.830;2023-07-28T03:52:32;17.10;1.00
7214;DHT22;3648;50.614;13.830;2023-07-28T03:54:59;17.10;1.00
7214;DHT22;3648;50.614;13.830;2023-07-28T03:57:27;17.10;1.00
7214;DHT22;3648;50.614;13.830;2023-07-28T03:59:54;17.10;1.00
7214;DHT22;3648;50.614;13.830;2023-07-28T04:02:22;17.10;1.00
7214;DHT22;3648;50.614;13.830;2023-07-28T04:04:53;17.10;1.00
7214;DHT22;3648;50.614;13.830;2023-07-28T04:07:21;17.20;1.00
7214;DHT22;3648;50.614;13.830;2023-07-28T04:09:48;17.20;1.00
7214;DHT22;3648;50.614;13.830;2023-07-28T04:12:14;17.10;1.00
7214;DHT22;3648;50.614;13.830;2023-07-28T04:14:41;17.10;1.00
7214;DHT22;3648;50.614;13.830;2023-07-28T04:17:08;17.20;1.00
7214;DHT22;3648;50.614;13.830;2023-07-28T04:19:38;17.20;1.00
7214;DHT22;3648;50.614;13.830;2023-07-28T04:22:05;17.20;1.00
7214;DHT22;3648;50.614;13.830;2023-07-28T04:24:32;17.20;1.00
7214;DHT22;3648;50.614;13.830;2023-07-28T04:27:00;17.20;1.00
7214;DHT22;3648;50.614;13.830;2023-07-28T04:29:27;17.20;1.00
7214;DHT22;3648;50.614;13.830;2023-07-28T04:31:53;17.30;1.00
7214;DHT22;3648;50.614;13.830;2023-07-28T04:34:21;17.30;1.00
7214;DHT22;3648;50.614;13.830;2023-07-28T04:36:49;17.30;1.00
7214;DHT22;3648;50.614;13.830;2023-07-28T04:39:16;17.30;1.00
7214;DHT22;3648;50.614;13.830;2023-07-28T04:41:43;17.30;1.00
7214;DHT22;3648;50.614;13.830;2023-07-28T04:44:10;17.30;1.00
7214;DHT22;3648;50.614;13.830;2023-07-28T04:46:37;17.30;1.00
7214;DHT22;3648;50.614;13.830;2023-07-28T04:49:03;17.40;1.00
7214;DHT22;3648;50.614;13.830;2023-07-28T04:51:31;17.40;1.00
7214;DHT22;3648;50.614;13.830;2023-07-28T04:53:59;17.40;1.00
7214;DHT22;3648;50.614;13.830;2023-07-28T04:56:26;17.40;1.00
7214;DHT22;3648;50.614;13.830;2023-07-28T04:58:53;17.40;1.00
7214;DHT22;3648;50.614;13.830;2023-07-28T05:01:20;17.40;1.00
7214;DHT22;3648;50.614;13.830;2023-07-28T05:03:47;17.40;1.00
7214;DHT22;3648;50.614;13.830;2023-07-28T05:06:14;17.40;1.00
7214;DHT22;3648;50.614;13.830;2023-07-28T05:08:41;17.50;1.00
7214;DHT22;3648;50.614;13.830;2023-07-28T05:11:09;17.50;1.00
7214;DHT22;3648;50.614;13.830;2023-07-28T05:13:36;17.50;1.00
7214;DHT22;3648;50.614;13.830;2023-07-28T05:16:04;17.60;1.00
7214;DHT22;3648;50.614;13.830;2023-07-28T05:18:31;17.60;1.00
7214;DHT22;3648;50.614;13.830;2023-07-28T05:20:58;17.60;1.00
7214;DHT22;3648;50.614;13.830;2023-07-28T05:23:24;17.60;1.00
7214;DHT22;3648;50.614;13.830;2023-07-28T05:25:52;17.60;1.00
7214;DHT22;3648;50.614;13.830;2023-07-28T05:28:20;17.60;1.00
7214;DHT22;3648;50.614;13.830;2023-07-28T05:30:47;17.60;1.00
7214;DHT22;3648;50.614;13.830;2023-07-28T05:33:14;17.60;1.00
7214;DHT22;3648;50.614;13.830;2023-07-28T05:35:41;17.60;1.00
7214;DHT22;3648;50.614;13.830;2023-07-28T05:38:08;17.60;1.00
7214;DHT22;3648;50.614;13.830;2023-07-28T05:40:34;17.70;1.00
7214;DHT22;3648;50.614;13.830;2023-07-28T05:43:01;17.70;1.00
7214;DHT22;3648;50.614;13.830;2023-07-28T05:45:30;17.70;1.00
7214;DHT22;3648;50.614;13.830;2023-07-28T05:47:57;17.70;1.00
7214;DHT22;3648;50.614;13.830;2023-07-28T05:50:24;17.80;1.00
7214;DHT22;3648;50.614;13.830;2023-07-28T05:52:51;17.80;1.00
7214;DHT22;3648;50.614;13.830;2023-07-28T05:55:18;17.80;1.00
7214;DHT22;3648;50.614;13.830;2023-07-28T05:57:45;17.80;1.00
7214;DHT22;3648;50.614;13.830;2023-07-28T06:00:13;17.80;1.00
7214;DHT22;3648;50.614;13.830;2023-07-28T06:02:41;17.90;1.00
7214;DHT22;3648;50.614;13.830;2023-07-28T06:05:08;17.90;1.00
7214;DHT22;3648;50.614;13.830;2023-07-28T06:07:35;17.90;1.00
7214;DHT22;3648;50.614;13.830;2023-07-28T06:10:02;17.90;1.00
7214;DHT22;3648;50.614;13.830;2023-07-28T06:12:30;18.00;1.00
7214;DHT22;3648;50.614;13.830;2023-07-28T06:14:57;18.00;1.00
7214;DHT22;3648;50.614;13.830;2023-07-28T06:17:23;18.00;1.00
7214;DHT22;3648;50.614;13.830;2023-07-28T06:19:54;18.00;1.00
7214;DHT22;3648;50.614;13.830;2023-07-28T06:22:21;18.00;1.00
7214;DHT22;3648;50.614;13.830;2023-07-28T06:24:48;18.00;1.00
7214;DHT22;3648;50.614;13.830;2023-07-28T06:27:15;18.00;1.00
7214;DHT22;3648;50.614;13.830;2023-07-28T06:29:42;18.00;1.00
7214;DHT22;3648;50.614;13.830;2023-07-28T06:32:09;18.10;1.00
7214;DHT22;3648;50.614;13.830;2023-07-28T06:34:36;18.10;1.00
7214;DHT22;3648;50.614;13.830;2023-07-28T06:37:05;18.10;1.00
7214;DHT22;3648;50.614;13.830;2023-07-28T06:39:32;18.10;1.00
7214;DHT22;3648;50.614;13.830;2023-07-28T06:42:00;18.10;1.00
7214;DHT22;3648;50.614;13.830;2023-07-28T06:44:27;18.10;1.00
7214;DHT22;3648;50.614;13.830;2023-07-28T06:46:55;18.20;1.00
7214;DHT22;3648;50.614;13.830;2023-07-28T06:49:22;18.20;1.00
7214;DHT22;3648;50.614;13.830;2023-07-28T06:51:49;18.20;1.00
7214;DHT22;3648;50.614;13.830;2023-07-28T06:54:18;18.20;1.00
7214;DHT22;3648;50.614;13.830;2023-07-28T06:56:45;18.20;1.00
7214;DHT22;3648;50.614;13.830;2023-07-28T06:59:13;18.30;1.00
7214;DHT22;3648;50.614;13.830;2023-07-28T07:01:40;18.30;1.00
7214;DHT22;3648;50.614;13.830;2023-07-28T07:04:07;18.30;1.00
7214;DHT22;3648;50.614;13.830;2023-07-28T07:06:34;18.30;1.00
7214;DHT22;3648;50.614;13.830;2023-07-28T07:09:01;18.30;1.00
7214;DHT22;3648;50.614;13.830;2023-07-28T07:11:30;18.40;1.00
7214;DHT22;3648;50.614;13.830;2023-07-28T07:13:57;18.40;1.00
7214;DHT22;3648;50.614;13.830;2023-07-28T07:16:24;18.40;1.00
7214;DHT22;3648;50.614;13.830;2023-07-28T07:18:51;18.50;1.00
7214;DHT22;3648;50.614;13.830;2023-07-28T07:21:18;18.50;1.00
7214;DHT22;3648;50.614;13.830;2023-07-28T07:23:45;18.50;1.00
7214;DHT22;3648;50.614;13.830;2023-07-28T07:26:13;18.50;1.00
7214;DHT22;3648;50.614;13.830;2023-07-28T07:28:41;18.50;1.00
7214;DHT22;3648;50.614;13.830;2023-07-28T07:31:12;18.60;1.00
7214;DHT22;3648;50.614;13.830;2023-07-28T07:33:40;18.60;1.00
7214;DHT22;3648;50.614;13.830;2023-07-28T07:36:11;18.60;1.00
7214;DHT22;3648;50.614;13.830;2023-07-28T07:38:39;18.70;1.00
7214;DHT22;3648;50.614;13.830;2023-07-28T07:41:06;18.60;1.00
7214;DHT22;3648;50.614;13.830;2023-07-28T07:43:33;18.70;1.00
7214;DHT22;3648;50.614;13.830;2023-07-28T07:46:02;18.80;1.00
7214;DHT22;3648;50.614;13.830;2023-07-28T07:48:29;18.80;1.00
7214;DHT22;3648;50.614;13.830;2023-07-28T07:50:56;18.90;1.00
7214;DHT22;3648;50.614;13.830;2023-07-28T07:53:23;18.90;1.00
7214;DHT22;3648;50.614;13.830;2023-07-28T07:55:50;18.90;1.00
7214;DHT22;3648;50.614;13.830;2023-07-28T07:58:17;19.00;1.00
7214;DHT22;3648;50.614;13.830;2023-07-28T08:00:44;19.00;1.00
7214;DHT22;3648;50.614;13.830;2023-07-28T08:03:12;19.00;1.00
7214;DHT22;3648;50.614;13.830;2023-07-28T08:05:39;19.10;1.00
7214;DHT22;3648;50.614;13.830;2023-07-28T08:08:07;19.20;1.00
7214;DHT22;3648;50.614;13.830;2023-07-28T08:10:35;19.20;1.00
7214;DHT22;3648;50.614;13.830;2023-07-28T08:13:02;19.30;1.00
7214;DHT22;3648;50.614;13.830;2023-07-28T08:15:30;19.30;1.00
7214;DHT22;3648;50.614;13.830;2023-07-28T08:17:57;19.40;1.00
7214;DHT22;3648;50.614;13.830;2023-07-28T08:20:26;19.50;1.00
7214;DHT22;3648;50.614;13.830;2023-07-28T08:22:53;19.50;1.00
7214;DHT22;3648;50.614;13.830;2023-07-28T08:25:21;19.60;1.00
7214;DHT22;3648;50.614;13.830;2023-07-28T08:27:48;19.60;1.00
7214;DHT22;3648;50.614;13.830;2023-07-28T08:30:15;19.70;1.00
7214;DHT22;3648;50.614;13.830;2023-07-28T08:32:43;19.70;1.00
7214;DHT22;3648;50.614;13.830;2023-07-28T08:35:10;19.80;1.00
7214;DHT22;3648;50.614;13.830;2023-07-28T08:37:38;19.80;1.00
7214;DHT22;3648;50.614;13.830;2023-07-28T08:40:06;19.90;1.00
7214;DHT22;3648;50.614;13.830;2023-07-28T08:42:36;19.90;1.00
7214;DHT22;3648;50.614;13.830;2023-07-28T08:45:04;20.00;1.00
7214;DHT22;3648;50.614;13.830;2023-07-28T08:47:32;20.00;1.00
7214;DHT22;3648;50.614;13.830;2023-07-28T08:49:59;20.10;99.90
7214;DHT22;3648;50.614;13.830;2023-07-28T08:52:27;20.10;99.90
7214;DHT22;3648;50.614;13.830;2023-07-28T08:54:55;20.20;99.90
7214;DHT22;3648;50.614;13.830;2023-07-28T08:57:22;20.20;99.90
7214;DHT22;3648;50.614;13.830;2023-07-28T08:59:49;20.30;99.90
7214;DHT22;3648;50.614;13.830;2023-07-28T09:02:18;20.30;99.90
7214;DHT22;3648;50.614;13.830;2023-07-28T09:04:47;20.40;99.90
7214;DHT22;3648;50.614;13.830;2023-07-28T09:07:15;20.40;99.90
7214;DHT22;3648;50.614;13.830;2023-07-28T09:09:42;20.50;99.90
7214;DHT22;3648;50.614;13.830;2023-07-28T09:12:11;20.50;99.90
7214;DHT22;3648;50.614;13.830;2023-07-28T09:14:38;20.60;99.90
7214;DHT22;3648;50.614;13.830;2023-07-28T09:17:09;20.70;99.90
7214;DHT22;3648;50.614;13.830;2023-07-28T09:19:50;20.80;99.90
7214;DHT22;3648;50.614;13.830;2023-07-28T09:22:18;20.80;99.90
7214;DHT22;3648;50.614;13.830;2023-07-28T09:24:46;20.90;99.90
7214;DHT22;3648;50.614;13.830;2023-07-28T09:27:22;20.90;99.90
7214;DHT22;3648;50.614;13.830;2023-07-28T09:29:50;21.00;99.90
7214;DHT22;3648;50.614;13.830;2023-07-28T09:32:26;21.00;99.90
7214;DHT22;3648;50.614;13.830;2023-07-28T09:35:06;21.10;99.90
7214;DHT22;3648;50.614;13.830;2023-07-28T09:37:37;21.10;99.90
7214;DHT22;3648;50.614;13.830;2023-07-28T09:40:08;21.20;99.90
7214;DHT22;3648;50.614;13.830;2023-07-28T09:42:38;21.30;99.90
7214;DHT22;3648;50.614;13.830;2023-07-28T09:45:06;21.30;99.90
7214;DHT22;3648;50.614;13.830;2023-07-28T09:47:34;21.30;99.90
7214;DHT22;3648;50.614;13.830;2023-07-28T09:50:03;21.40;99.90
7214;DHT22;3648;50.614;13.830;2023-07-28T09:52:34;21.40;99.90
7214;DHT22;3648;50.614;13.830;2023-07-28T09:55:05;21.40;99.90
7214;DHT22;3648;50.614;13.830;2023-07-28T09:57:38;21.40;99.90
7214;DHT22;3648;50.614;13.830;2023-07-28T10:00:08;21.50;99.90
7214;DHT22;3648;50.614;13.830;2023-07-28T10:02:36;21.50;99.90
7214;DHT22;3648;50.614;13.830;2023-07-28T10:05:05;21.50;99.90
7214;DHT22;3648;50.614;13.830;2023-07-28T10:07:33;21.50;99.90
7214;DHT22;3648;50.614;13.830;2023-07-28T10:10:01;21.60;99.90
7214;DHT22;3648;50.614;13.830;2023-07-28T10:12:28;21.70;99.90
7214;DHT22;3648;50.614;13.830;2023-07-28T10:15:04;21.90;99.90
7214;DHT22;3648;50.614;13.830;2023-07-28T10:17:31;22.00;99.90
7214;DHT22;3648;50.614;13.830;2023-07-28T10:20:02;22.10;99.90
7214;DHT22;3648;50.614;13.830;2023-07-28T10:22:32;22.10;99.90
7214;DHT22;3648;50.614;13.830;2023-07-28T10:25:01;22.20;99.90
7214;DHT22;3648;50.614;13.830;2023-07-28T10:27:34;22.30;99.90
7214;DHT22;3648;50.614;13.830;2023-07-28T10:30:04;22.30;99.90
7214;DHT22;3648;50.614;13.830;2023-07-28T10:32:38;22.40;99.90
7214;DHT22;3648;50.614;13.830;2023-07-28T10:35:09;22.40;99.90
7214;DHT22;3648;50.614;13.830;2023-07-28T10:37:49;22.50;99.90
7214;DHT22;3648;50.614;13.830;2023-07-28T10:40:26;22.70;99.90
7214;DHT22;3648;50.614;13.830;2023-07-28T10:42:55;22.80;99.90
7214;DHT22;3648;50.614;13.830;2023-07-28T10:45:26;22.90;99.90
7214;DHT22;3648;50.614;13.830;2023-07-28T10:47:55;23.10;99.90
7214;DHT22;3648;50.614;13.830;2023-07-28T10:50:27;23.20;99.90
7214;DHT22;3648;50.614;13.830;2023-07-28T10:52:54;23.30;99.90
7214;DHT22;3648;50.614;13.830;2023-07-28T10:55:23;23.40;99.90
7214;DHT22;3648;50.614;13.830;2023-07-28T10:57:52;23.40;99.90
7214;DHT22;3648;50.614;13.830;2023-07-28T11:00:21;23.50;99.90
7214;DHT22;3648;50.614;13.830;2023-07-28T11:02:51;23.50;99.90
7214;DHT22;3648;50.614;13.830;2023-07-28T11:05:20;23.60;99.90
7214;DHT22;3648;50.614;13.830;2023-07-28T11:07:49;23.60;99.90
7214;DHT22;3648;50.614;13.830;2023-07-28T11:10:16;23.60;99.90
7214;DHT22;3648;50.614;13.830;2023-07-28T11:12:45;23.70;99.90
7214;DHT22;3648;50.614;13.830;2023-07-28T11:15:13;23.90;99.90
7214;DHT22;3648;50.614;13.830;2023-07-28T11:17:45;24.00;99.90
7214;DHT22;3648;50.614;13.830;2023-07-28T11:20:17;24.10;99.90
7214;DHT22;3648;50.614;13.830;2023-07-28T11:22:46;24.20;99.90
7214;DHT22;3648;50.614;13.830;2023-07-28T11:25:13;24.30;99.90
7214;DHT22;3648;50.614;13.830;2023-07-28T11:27:40;24.50;99.90
7214;DHT22;3648;50.614;13.830;2023-07-28T11:30:08;24.50;99.90
7214;DHT22;3648;50.614;13.830;2023-07-28T11:32:42;24.50;99.90
7214;DHT22;3648;50.614;13.830;2023-07-28T11:35:13;24.50;99.90
7214;DHT22;3648;50.614;13.830;2023-07-28T11:37:43;24.50;99.90
7214;DHT22;3648;50.614;13.830;2023-07-28T11:40:11;24.50;99.90
7214;DHT22;3648;50.614;13.830;2023-07-28T11:42:39;24.50;99.90
7214;DHT22;3648;50.614;13.830;2023-07-28T11:45:08;24.50;99.90
7214;DHT22;3648;50.614;13.830;2023-07-28T11:47:36;24.50;99.90
7214;DHT22;3648;50.614;13.830;2023-07-28T11:50:03;24.50;99.90
7214;DHT22;3648;50.614;13.830;2023-07-28T11:52:31;24.50;99.90
7214;DHT22;3648;50.614;13.830;2023-07-28T11:55:01;24.40;99.90
7214;DHT22;3648;50.614;13.830;2023-07-28T11:57:29;24.40;99.90
7214;DHT22;3648;50.614;13.830;2023-07-28T11:59:58;24.30;99.90
7214;DHT22;3648;50.614;13.830;2023-07-28T12:02:26;24.40;99.90
7214;DHT22;3648;50.614;13.830;2023-07-28T12:04:54;24.40;99.90
7214;DHT22;3648;50.614;13.830;2023-07-28T12:07:28;24.50;99.90
7214;DHT22;3648;50.614;13.830;2023-07-28T12:09:56;24.50;99.90
7214;DHT22;3648;50.614;13.830;2023-07-28T12:12:27;24.60;99.90
7214;DHT22;3648;50.614;13.830;2023-07-28T12:14:56;24.70;99.90
7214;DHT22;3648;50.614;13.830;2023-07-28T12:17:25;24.80;99.90
7214;DHT22;3648;50.614;13.830;2023-07-28T12:20:02;24.90;99.90
7214;DHT22;3648;50.614;13.830;2023-07-28T12:22:37;24.90;99.90
7214;DHT22;3648;50.614;13.830;2023-07-28T12:25:05;24.90;99.90
7214;DHT22;3648;50.614;13.830;2023-07-28T12:27:34;24.90;99.90
7214;DHT22;3648;50.614;13.830;2023-07-28T12:30:02;24.90;99.90
7214;DHT22;3648;50.614;13.830;2023-07-28T12:32:30;24.80;99.90
7214;DHT22;3648;50.614;13.830;2023-07-28T12:34:58;24.80;99.90
7214;DHT22;3648;50.614;13.830;2023-07-28T12:37:25;24.80;99.90
7214;DHT22;3648;50.614;13.830;2023-07-28T12:39:52;24.80;99.90
7214;DHT22;3648;50.614;13.830;2023-07-28T12:42:19;24.80;99.90
7214;DHT22;3648;50.614;13.830;2023-07-28T12:44:47;24.80;99.90
7214;DHT22;3648;50.614;13.830;2023-07-28T12:47:15;24.90;99.90
7214;DHT22;3648;50.614;13.830;2023-07-28T12:49:43;24.90;99.90
7214;DHT22;3648;50.614;13.830;2023-07-28T12:52:10;24.90;99.90
7214;DHT22;3648;50.614;13.830;2023-07-28T12:54:37;24.80;99.90
7214;DHT22;3648;50.614;13.830;2023-07-28T12:57:05;24.80;99.90
7214;DHT22;3648;50.614;13.830;2023-07-28T12:59:35;24.70;99.90
7214;DHT22;3648;50.614;13.830;2023-07-28T13:02:03;24.70;99.90
7214;DHT22;3648;50.614;13.830;2023-07-28T13:04:30;24.70;99.90
7214;DHT22;3648;50.614;13.830;2023-07-28T13:06:57;24.60;99.90
7214;DHT22;3648;50.614;13.830;2023-07-28T13:09:24;24.60;99.90
7214;DHT22;3648;50.614;13.830;2023-07-28T13:11:51;24.60;99.90
7214;DHT22;3648;50.614;13.830;2023-07-28T13:14:18;24.70;99.90
7214;DHT22;3648;50.614;13.830;2023-07-28T13:16:45;24.90;99.90
7214;DHT22;3648;50.614;13.830;2023-07-28T13:19:14;24.90;99.90
7214;DHT22;3648;50.614;13.830;2023-07-28T13:21:41;24.80;99.90
7214;DHT22;3648;50.614;13.830;2023-07-28T13:24:08;24.80;99.90
7214;DHT22;3648;50.614;13.830;2023-07-28T13:26:35;24.90;99.90
7214;DHT22;3648;50.614;13.830;2023-07-28T13:29:02;25.00;99.90
7214;DHT22;3648;50.614;13.830;2023-07-28T13:31:32;25.00;99.90
7214;DHT22;3648;50.614;13.830;2023-07-28T13:33:59;25.10;99.90
7214;DHT22;3648;50.614;13.830;2023-07-28T13:36:28;25.20;99.90
7214;DHT22;3648;50.614;13.830;2023-07-28T13:38:55;25.10;99.90
7214;DHT22;3648;50.614;13.830;2023-07-28T13:41:22;25.20;99.90
7214;DHT22;3648;50.614;13.830;2023-07-28T13:43:49;25.30;99.90
7214;DHT22;3648;50.614;13.830;2023-07-28T13:46:17;25.40;99.90
7214;DHT22;3648;50.614;13.830;2023-07-28T13:48:44;25.40;99.90
7214;DHT22;3648;50.614;13.830;2023-07-28T13:51:11;25.40;99.90
7214;DHT22;3648;50.614;13.830;2023-07-28T13:53:40;25.50;99.90
7214;DHT22;3648;50.614;13.830;2023-07-28T13:56:07;25.50;99.90
7214;DHT22;3648;50.614;13.830;2023-07-28T13:58:34;25.70;99.90
7214;DHT22;3648;50.614;13.830;2023-07-28T14:01:02;25.60;99.90
7214;DHT22;3648;50.614;13.830;2023-07-28T14:03:29;25.70;99.90
7214;DHT22;3648;50.614;13.830;2023-07-28T14:05:56;25.80;99.90
7214;DHT22;3648;50.614;13.830;2023-07-28T14:08:24;25.80;99.90
7214;DHT22;3648;50.614;13.830;2023-07-28T14:10:52;25.90;99.90
7214;DHT22;3648;50.614;13.830;2023-07-28T14:13:19;26.00;99.90
7214;DHT22;3648;50.614;13.830;2023-07-28T14:15:47;26.00;99.90
7214;DHT22;3648;50.614;13.830;2023-07-28T14:18:14;26.00;99.90
7214;DHT22;3648;50.614;13.830;2023-07-28T14:20:41;26.00;99.90
7214;DHT22;3648;50.614;13.830;2023-07-28T14:23:21;26.00;99.90
7214;DHT22;3648;50.614;13.830;2023-07-28T14:25:49;26.10;99.90
7214;DHT22;3648;50.614;13.830;2023-07-28T14:28:17;26.00;99.90
7214;DHT22;3648;50.614;13.830;2023-07-28T14:30:44;25.90;99.90
7214;DHT22;3648;50.614;13.830;2023-07-28T14:33:13;25.80;99.90
7214;DHT22;3648;50.614;13.830;2023-07-28T14:35:41;25.80;99.90
7214;DHT22;3648;50.614;13.830;2023-07-28T14:38:08;25.70;99.90
7214;DHT22;3648;50.614;13.830;2023-07-28T14:40:35;25.60;99.90
7214;DHT22;3648;50.614;13.830;2023-07-28T14:43:03;25.70;99.90
7214;DHT22;3648;50.614;13.830;2023-07-28T14:45:32;25.70;99.90
7214;DHT22;3648;50.614;13.830;2023-07-28T14:47:59;25.80;99.90
7214;DHT22;3648;50.614;13.830;2023-07-28T14:50:26;25.80;99.90
7214;DHT22;3648;50.614;13.830;2023-07-28T14:52:54;25.70;99.90
7214;DHT22;3648;50.614;13.830;2023-07-28T14:55:21;25.70;99.90
7214;DHT22;3648;50.614;13.830;2023-07-28T14:57:48;25.70;99.90
7214;DHT22;3648;50.614;13.830;2023-07-28T15:00:15;25.60;99.90
7214;DHT22;3648;50.614;13.830;2023-07-28T15:02:43;25.50;99.90
7214;DHT22;3648;50.614;13.830;2023-07-28T15:05:10;25.50;99.90
7214;DHT22;3648;50.614;13.830;2023-07-28T15:07:37;25.60;99.90
7214;DHT22;3648;50.614;13.830;2023-07-28T15:10:04;25.50;99.90
7214;DHT22;3648;50.614;13.830;2023-07-28T15:12:31;25.50;99.90
7214;DHT22;3648;50.614;13.830;2023-07-28T15:14:59;25.50;99.90
7214;DHT22;3648;50.614;13.830;2023-07-28T15:17:25;25.50;99.90
7214;DHT22;3648;50.614;13.830;2023-07-28T15:19:54;25.50;99.90
7214;DHT22;3648;50.614;13.830;2023-07-28T15:22:21;25.40;99.90
7214;DHT22;3648;50.614;13.830;2023-07-28T15:24:48;25.40;99.90
7214;DHT22;3648;50.614;13.830;2023-07-28T15:27:15;25.40;99.90
7214;DHT22;3648;50.614;13.830;2023-07-28T15:29:42;25.30;99.90
7214;DHT22;3648;50.614;13.830;2023-07-28T15:32:10;25.20;99.90
7214;DHT22;3648;50.614;13.830;2023-07-28T15:34:37;25.20;99.90
7214;DHT22;3648;50.614;13.830;2023-07-28T15:37:06;25.10;99.90
7214;DHT22;3648;50.614;13.830;2023-07-28T15:39:33;25.00;99.90
7214;DHT22;3648;50.614;13.830;2023-07-28T15:42:00;24.90;99.90
7214;DHT22;3648;50.614;13.830;2023-07-28T15:44:27;24.80;99.90
7214;DHT22;3648;50.614;13.830;2023-07-28T15:46:54;24.70;99.90
7214;DHT22;3648;50.614;13.830;2023-07-28T15:49:21;24.70;99.90
7214;DHT22;3648;50.614;13.830;2023-07-28T15:51:48;24.70;99.90
7214;DHT22;3648;50.614;13.830;2023-07-28T15:54:16;24.60;99.90
7214;DHT22;3648;50.614;13.830;2023-07-28T15:56:43;24.50;99.90